Terminal Aerodrome Forecast
Issued by NWS

Home | Current Version | Previous Version | Text Only | Print | Product List | Glossary On
Versions: 1 2 3 4 5 6 7 8 9 10 11 12 13 14 15 16 17 18
000
FTUS46 KSGX 200700 AAA
TAFCRQ
TAF AMD
KCRQ 200756Z 2008/2106 16005KT P6SM VCTS BKN018 BKN050CB
     FM201700 24008KT P6SM SCT018 SCT100
     FM210400 VRB04KT P6SM BKN015=

USA.gov is the U.S. government's official web portal to all federal, state and local government web resources and services.